Terminal Aerodrome Forecast
Issued by NWS

Home | Current Version | Previous Version | Text Only | Print | Product List | Glossary On
Versions: 1 2 3 4 5 6 7 8 9 10 11 12 13 14
000
FTPA31 PHFO 182336
TAFHMK
TAF
PHMK 182336Z 1900/1924 04014G22KT P6SM FEW030 SCT045
     FM190900 04008KT P6SM VCSH SCT025 SCT045
     FM192000 04013G21KT P6SM FEW030 SCT045=

USA.gov is the U.S. government's official web portal to all federal, state and local government web resources and services.